sensor_id;sensor_type;location;lat;lon;timestamp;temperature;humidity
17687;DHT22;8962;52.538;13.266;2023-04-26T00:00:42;5.10;99.90
17687;DHT22;8962;52.538;13.266;2023-04-26T00:03:10;5.10;99.90
17687;DHT22;8962;52.538;13.266;2023-04-26T00:05:38;5.10;99.90
17687;DHT22;8962;52.538;13.266;2023-04-26T00:08:05;5.10;99.90
17687;DHT22;8962;52.538;13.266;2023-04-26T00:10:32;5.00;99.90
17687;DHT22;8962;52.538;13.266;2023-04-26T00:13:00;5.00;99.90
17687;DHT22;8962;52.538;13.266;2023-04-26T00:15:28;5.00;99.90
17687;DHT22;8962;52.538;13.266;2023-04-26T00:17:55;4.90;99.90
17687;DHT22;8962;52.538;13.266;2023-04-26T00:20:23;4.90;99.90
17687;DHT22;8962;52.538;13.266;2023-04-26T00:22:50;4.90;99.90
17687;DHT22;8962;52.538;13.266;2023-04-26T00:25:17;4.90;99.90
17687;DHT22;8962;52.538;13.266;2023-04-26T00:27:46;4.90;99.90
17687;DHT22;8962;52.538;13.266;2023-04-26T00:30:15;4.80;99.90
17687;DHT22;8962;52.538;13.266;2023-04-26T00:32:43;4.80;99.90
17687;DHT22;8962;52.538;13.266;2023-04-26T00:35:11;4.80;99.90
17687;DHT22;8962;52.538;13.266;2023-04-26T00:37:39;4.70;99.90
17687;DHT22;8962;52.538;13.266;2023-04-26T00:40:08;4.70;99.90
17687;DHT22;8962;52.538;13.266;2023-04-26T00:42:37;4.70;99.90
17687;DHT22;8962;52.538;13.266;2023-04-26T00:45:06;4.70;99.90
17687;DHT22;8962;52.538;13.266;2023-04-26T00:47:33;4.70;99.90
17687;DHT22;8962;52.538;13.266;2023-04-26T00:50:06;4.60;99.90
17687;DHT22;8962;52.538;13.266;2023-04-26T00:52:36;4.60;99.90
17687;DHT22;8962;52.538;13.266;2023-04-26T00:55:05;4.60;99.90
17687;DHT22;8962;52.538;13.266;2023-04-26T00:57:33;4.50;99.90
17687;DHT22;8962;52.538;13.266;2023-04-26T01:00:00;4.50;99.90
17687;DHT22;8962;52.538;13.266;2023-04-26T01:02:28;4.50;99.90
17687;DHT22;8962;52.538;13.266;2023-04-26T01:04:55;4.50;99.90
17687;DHT22;8962;52.538;13.266;2023-04-26T01:07:24;4.50;99.90
17687;DHT22;8962;52.538;13.266;2023-04-26T01:09:54;4.40;99.90
17687;DHT22;8962;52.538;13.266;2023-04-26T01:12:23;4.40;99.90
17687;DHT22;8962;52.538;13.266;2023-04-26T01:14:51;4.40;99.90
17687;DHT22;8962;52.538;13.266;2023-04-26T01:17:18;4.40;99.90
17687;DHT22;8962;52.538;13.266;2023-04-26T01:19:47;4.40;99.90
17687;DHT22;8962;52.538;13.266;2023-04-26T01:22:15;4.30;99.90
17687;DHT22;8962;52.538;13.266;2023-04-26T01:24:45;4.30;99.90
17687;DHT22;8962;52.538;13.266;2023-04-26T01:27:14;4.30;99.90
17687;DHT22;8962;52.538;13.266;2023-04-26T01:29:42;4.30;99.90
17687;DHT22;8962;52.538;13.266;2023-04-26T01:32:11;4.30;99.90
17687;DHT22;8962;52.538;13.266;2023-04-26T01:34:38;4.30;99.90
17687;DHT22;8962;52.538;13.266;2023-04-26T01:37:05;4.30;99.90
17687;DHT22;8962;52.538;13.266;2023-04-26T01:39:33;4.20;99.90
17687;DHT22;8962;52.538;13.266;2023-04-26T01:42:03;4.20;99.90
17687;DHT22;8962;52.538;13.266;2023-04-26T01:44:31;4.20;99.90
17687;DHT22;8962;52.538;13.266;2023-04-26T01:47:00;4.20;99.90
17687;DHT22;8962;52.538;13.266;2023-04-26T01:49:27;4.20;99.90
17687;DHT22;8962;52.538;13.266;2023-04-26T01:51:55;4.10;99.90
17687;DHT22;8962;52.538;13.266;2023-04-26T01:54:23;4.10;99.90
17687;DHT22;8962;52.538;13.266;2023-04-26T01:56:52;4.10;99.90
17687;DHT22;8962;52.538;13.266;2023-04-26T01:59:23;4.10;99.90
17687;DHT22;8962;52.538;13.266;2023-04-26T02:01:51;4.10;99.90
17687;DHT22;8962;52.538;13.266;2023-04-26T02:04:18;4.10;99.90
17687;DHT22;8962;52.538;13.266;2023-04-26T02:06:45;4.10;99.90
17687;DHT22;8962;52.538;13.266;2023-04-26T02:09:15;4.00;99.90
17687;DHT22;8962;52.538;13.266;2023-04-26T02:11:43;4.00;99.90
17687;DHT22;8962;52.538;13.266;2023-04-26T02:14:10;4.00;99.90
17687;DHT22;8962;52.538;13.266;2023-04-26T02:16:40;4.00;99.90
17687;DHT22;8962;52.538;13.266;2023-04-26T02:19:08;4.00;99.90
17687;DHT22;8962;52.538;13.266;2023-04-26T02:21:49;4.00;99.90
17687;DHT22;8962;52.538;13.266;2023-04-26T02:24:17;4.00;99.90
17687;DHT22;8962;52.538;13.266;2023-04-26T02:26:46;3.90;99.90
17687;DHT22;8962;52.538;13.266;2023-04-26T02:29:13;3.90;99.90
17687;DHT22;8962;52.538;13.266;2023-04-26T02:31:42;3.90;99.90
17687;DHT22;8962;52.538;13.266;2023-04-26T02:34:09;3.90;99.90
17687;DHT22;8962;52.538;13.266;2023-04-26T02:36:37;3.90;99.90
17687;DHT22;8962;52.538;13.266;2023-04-26T02:39:04;3.80;99.90
17687;DHT22;8962;52.538;13.266;2023-04-26T02:41:32;3.80;99.90
17687;DHT22;8962;52.538;13.266;2023-04-26T02:43:59;3.80;99.90
17687;DHT22;8962;52.538;13.266;2023-04-26T02:46:27;3.80;99.90
17687;DHT22;8962;52.538;13.266;2023-04-26T02:48:55;3.80;99.90
17687;DHT22;8962;52.538;13.266;2023-04-26T02:51:22;3.80;99.90
17687;DHT22;8962;52.538;13.266;2023-04-26T02:53:49;3.80;99.90
17687;DHT22;8962;52.538;13.266;2023-04-26T02:56:17;3.70;99.90
17687;DHT22;8962;52.538;13.266;2023-04-26T02:58:46;3.70;99.90
17687;DHT22;8962;52.538;13.266;2023-04-26T03:01:14;3.70;99.90
17687;DHT22;8962;52.538;13.266;2023-04-26T03:03:42;3.80;99.90
17687;DHT22;8962;52.538;13.266;2023-04-26T03:06:11;3.80;99.90
17687;DHT22;8962;52.538;13.266;2023-04-26T03:08:38;3.70;99.90
17687;DHT22;8962;52.538;13.266;2023-04-26T03:11:05;3.70;99.90
17687;DHT22;8962;52.538;13.266;2023-04-26T03:13:33;3.70;99.90
17687;DHT22;8962;52.538;13.266;2023-04-26T03:16:00;3.70;99.90
17687;DHT22;8962;52.538;13.266;2023-04-26T03:18:28;3.60;99.90
17687;DHT22;8962;52.538;13.266;2023-04-26T03:20:56;3.70;99.90
17687;DHT22;8962;52.538;13.266;2023-04-26T03:23:25;3.70;99.90
17687;DHT22;8962;52.538;13.266;2023-04-26T03:25:53;3.60;99.90
17687;DHT22;8962;52.538;13.266;2023-04-26T03:28:21;3.60;99.90
17687;DHT22;8962;52.538;13.266;2023-04-26T03:30:48;3.60;99.90
17687;DHT22;8962;52.538;13.266;2023-04-26T03:33:16;3.60;99.90
17687;DHT22;8962;52.538;13.266;2023-04-26T03:35:44;3.60;99.90
17687;DHT22;8962;52.538;13.266;2023-04-26T03:38:11;3.60;99.90
17687;DHT22;8962;52.538;13.266;2023-04-26T03:40:40;3.50;99.90
17687;DHT22;8962;52.538;13.266;2023-04-26T03:43:08;3.50;99.90
17687;DHT22;8962;52.538;13.266;2023-04-26T03:45:35;3.50;99.90
17687;DHT22;8962;52.538;13.266;2023-04-26T03:48:02;3.50;99.90
17687;DHT22;8962;52.538;13.266;2023-04-26T03:50:30;3.50;99.90
17687;DHT22;8962;52.538;13.266;2023-04-26T03:52:57;3.50;99.90
17687;DHT22;8962;52.538;13.266;2023-04-26T03:55:24;3.40;99.90
17687;DHT22;8962;52.538;13.266;2023-04-26T03:57:53;3.50;99.90
17687;DHT22;8962;52.538;13.266;2023-04-26T04:00:21;3.50;99.90
17687;DHT22;8962;52.538;13.266;2023-04-26T04:02:49;3.50;99.90
17687;DHT22;8962;52.538;13.266;2023-04-26T04:05:23;3.50;99.90
17687;DHT22;8962;52.538;13.266;2023-04-26T04:07:50;3.50;99.90
17687;DHT22;8962;52.538;13.266;2023-04-26T04:10:18;3.50;99.90
17687;DHT22;8962;52.538;13.266;2023-04-26T04:12:48;3.50;99.90
17687;DHT22;8962;52.538;13.266;2023-04-26T04:15:19;3.50;99.90
17687;DHT22;8962;52.538;13.266;2023-04-26T04:17:47;3.50;99.90
17687;DHT22;8962;52.538;13.266;2023-04-26T04:20:14;3.60;99.90
17687;DHT22;8962;52.538;13.266;2023-04-26T04:22:42;3.60;99.90
17687;DHT22;8962;52.538;13.266;2023-04-26T04:25:10;3.60;99.90
17687;DHT22;8962;52.538;13.266;2023-04-26T04:27:38;3.60;99.90
17687;DHT22;8962;52.538;13.266;2023-04-26T04:30:08;3.60;99.90
17687;DHT22;8962;52.538;13.266;2023-04-26T04:32:38;3.60;99.90
17687;DHT22;8962;52.538;13.266;2023-04-26T04:35:09;3.60;99.90
17687;DHT22;8962;52.538;13.266;2023-04-26T04:37:36;3.60;99.90
17687;DHT22;8962;52.538;13.266;2023-04-26T04:40:05;3.70;99.90
17687;DHT22;8962;52.538;13.266;2023-04-26T04:42:37;3.70;99.90
17687;DHT22;8962;52.538;13.266;2023-04-26T04:45:07;3.70;99.90
17687;DHT22;8962;52.538;13.266;2023-04-26T04:47:39;3.70;99.90
17687;DHT22;8962;52.538;13.266;2023-04-26T04:50:07;3.70;99.90
17687;DHT22;8962;52.538;13.266;2023-04-26T04:52:35;3.70;99.90
17687;DHT22;8962;52.538;13.266;2023-04-26T04:55:03;3.70;99.90
17687;DHT22;8962;52.538;13.266;2023-04-26T04:57:31;3.80;99.90
17687;DHT22;8962;52.538;13.266;2023-04-26T05:00:00;3.80;99.90
17687;DHT22;8962;52.538;13.266;2023-04-26T05:02:36;3.90;99.90
17687;DHT22;8962;52.538;13.266;2023-04-26T05:05:06;3.90;99.90
17687;DHT22;8962;52.538;13.266;2023-04-26T05:07:33;3.90;99.90
17687;DHT22;8962;52.538;13.266;2023-04-26T05:10:01;3.90;99.90
17687;DHT22;8962;52.538;13.266;2023-04-26T05:12:29;3.90;99.90
17687;DHT22;8962;52.538;13.266;2023-04-26T05:14:56;3.90;99.90
17687;DHT22;8962;52.538;13.266;2023-04-26T05:17:24;4.00;99.90
17687;DHT22;8962;52.538;13.266;2023-04-26T05:19:52;4.00;99.90
17687;DHT22;8962;52.538;13.266;2023-04-26T05:22:20;4.00;99.90
17687;DHT22;8962;52.538;13.266;2023-04-26T05:24:48;4.10;99.90
17687;DHT22;8962;52.538;13.266;2023-04-26T05:27:16;4.10;99.90
17687;DHT22;8962;52.538;13.266;2023-04-26T05:29:51;4.10;99.90
17687;DHT22;8962;52.538;13.266;2023-04-26T05:32:41;4.10;99.90
17687;DHT22;8962;52.538;13.266;2023-04-26T05:35:29;4.20;99.90
17687;DHT22;8962;52.538;13.266;2023-04-26T05:37:58;4.30;99.90
17687;DHT22;8962;52.538;13.266;2023-04-26T05:40:25;4.30;99.90
17687;DHT22;8962;52.538;13.266;2023-04-26T05:42:53;4.40;99.90
17687;DHT22;8962;52.538;13.266;2023-04-26T05:45:20;4.40;99.90
17687;DHT22;8962;52.538;13.266;2023-04-26T05:47:49;4.50;99.90
17687;DHT22;8962;52.538;13.266;2023-04-26T05:50:16;4.60;99.90
17687;DHT22;8962;52.538;13.266;2023-04-26T05:52:43;4.70;99.90
17687;DHT22;8962;52.538;13.266;2023-04-26T05:55:12;4.70;99.90
17687;DHT22;8962;52.538;13.266;2023-04-26T05:57:40;4.70;99.90
17687;DHT22;8962;52.538;13.266;2023-04-26T06:00:10;4.70;99.90
17687;DHT22;8962;52.538;13.266;2023-04-26T06:02:41;4.80;99.90
17687;DHT22;8962;52.538;13.266;2023-04-26T06:05:13;4.90;99.90
17687;DHT22;8962;52.538;13.266;2023-04-26T06:07:42;5.00;99.90
17687;DHT22;8962;52.538;13.266;2023-04-26T06:10:12;5.10;99.90
17687;DHT22;8962;52.538;13.266;2023-04-26T06:12:39;5.10;99.90
17687;DHT22;8962;52.538;13.266;2023-04-26T06:15:08;5.20;99.90
17687;DHT22;8962;52.538;13.266;2023-04-26T06:17:39;5.30;99.90
17687;DHT22;8962;52.538;13.266;2023-04-26T06:20:08;5.30;99.90
17687;DHT22;8962;52.538;13.266;2023-04-26T06:22:36;5.30;99.90
17687;DHT22;8962;52.538;13.266;2023-04-26T06:25:05;5.40;99.90
17687;DHT22;8962;52.538;13.266;2023-04-26T06:27:36;5.50;99.90
17687;DHT22;8962;52.538;13.266;2023-04-26T06:30:05;5.60;99.90
17687;DHT22;8962;52.538;13.266;2023-04-26T06:32:37;5.60;99.90
17687;DHT22;8962;52.538;13.266;2023-04-26T06:35:04;5.70;99.90
17687;DHT22;8962;52.538;13.266;2023-04-26T06:37:32;5.90;99.90
17687;DHT22;8962;52.538;13.266;2023-04-26T06:40:00;6.00;99.90
17687;DHT22;8962;52.538;13.266;2023-04-26T06:42:28;6.00;99.90
17687;DHT22;8962;52.538;13.266;2023-04-26T06:45:18;6.00;99.90
17687;DHT22;8962;52.538;13.266;2023-04-26T06:47:45;6.20;99.90
17687;DHT22;8962;52.538;13.266;2023-04-26T06:50:13;6.20;99.90
17687;DHT22;8962;52.538;13.266;2023-04-26T06:52:40;6.10;99.90
17687;DHT22;8962;52.538;13.266;2023-04-26T06:55:08;6.30;99.90
17687;DHT22;8962;52.538;13.266;2023-04-26T06:57:36;6.50;99.90
17687;DHT22;8962;52.538;13.266;2023-04-26T07:00:04;6.60;99.90
17687;DHT22;8962;52.538;13.266;2023-04-26T07:02:40;6.80;99.90
17687;DHT22;8962;52.538;13.266;2023-04-26T07:05:08;6.90;99.90
17687;DHT22;8962;52.538;13.266;2023-04-26T07:07:35;6.90;99.90
17687;DHT22;8962;52.538;13.266;2023-04-26T07:10:03;7.10;99.90
17687;DHT22;8962;52.538;13.266;2023-04-26T07:12:30;7.20;99.90
17687;DHT22;8962;52.538;13.266;2023-04-26T07:14:57;7.40;99.90
17687;DHT22;8962;52.538;13.266;2023-04-26T07:17:26;7.30;99.90
17687;DHT22;8962;52.538;13.266;2023-04-26T07:19:54;7.10;99.90
17687;DHT22;8962;52.538;13.266;2023-04-26T07:22:21;7.30;99.90
17687;DHT22;8962;52.538;13.266;2023-04-26T07:24:48;7.40;99.90
17687;DHT22;8962;52.538;13.266;2023-04-26T07:27:16;7.40;99.90
17687;DHT22;8962;52.538;13.266;2023-04-26T07:29:43;7.20;99.90
17687;DHT22;8962;52.538;13.266;2023-04-26T07:32:10;7.40;99.90
17687;DHT22;8962;52.538;13.266;2023-04-26T07:34:37;7.60;99.90
17687;DHT22;8962;52.538;13.266;2023-04-26T07:37:06;7.90;99.90
17687;DHT22;8962;52.538;13.266;2023-04-26T07:39:33;8.00;99.90
17687;DHT22;8962;52.538;13.266;2023-04-26T07:42:01;8.20;99.90
17687;DHT22;8962;52.538;13.266;2023-04-26T07:44:28;8.50;99.90
17687;DHT22;8962;52.538;13.266;2023-04-26T07:46:57;8.40;99.90
17687;DHT22;8962;52.538;13.266;2023-04-26T07:49:24;8.20;99.90
17687;DHT22;8962;52.538;13.266;2023-04-26T07:51:51;8.20;99.90
17687;DHT22;8962;52.538;13.266;2023-04-26T07:54:21;8.60;99.90
17687;DHT22;8962;52.538;13.266;2023-04-26T07:56:48;8.60;99.90
17687;DHT22;8962;52.538;13.266;2023-04-26T07:59:15;8.50;99.90
17687;DHT22;8962;52.538;13.266;2023-04-26T08:01:42;8.40;99.90
17687;DHT22;8962;52.538;13.266;2023-04-26T08:04:09;8.40;99.90
17687;DHT22;8962;52.538;13.266;2023-04-26T08:06:36;8.30;99.90
17687;DHT22;8962;52.538;13.266;2023-04-26T08:09:04;8.00;99.90
17687;DHT22;8962;52.538;13.266;2023-04-26T08:11:32;8.00;99.90
17687;DHT22;8962;52.538;13.266;2023-04-26T08:14:00;8.10;99.90
17687;DHT22;8962;52.538;13.266;2023-04-26T08:16:28;8.40;99.90
17687;DHT22;8962;52.538;13.266;2023-04-26T08:18:56;8.60;99.90
17687;DHT22;8962;52.538;13.266;2023-04-26T08:21:28;8.80;99.90
17687;DHT22;8962;52.538;13.266;2023-04-26T08:23:56;8.40;99.90
17687;DHT22;8962;52.538;13.266;2023-04-26T08:26:24;8.00;99.90
17687;DHT22;8962;52.538;13.266;2023-04-26T08:28:53;7.80;99.90
17687;DHT22;8962;52.538;13.266;2023-04-26T08:31:23;7.60;99.90
17687;DHT22;8962;52.538;13.266;2023-04-26T08:33:52;7.60;99.90
17687;DHT22;8962;52.538;13.266;2023-04-26T08:36:20;7.70;99.90
17687;DHT22;8962;52.538;13.266;2023-04-26T08:38:49;8.00;99.90
17687;DHT22;8962;52.538;13.266;2023-04-26T08:41:21;8.20;99.90
17687;DHT22;8962;52.538;13.266;2023-04-26T08:43:50;8.50;99.90
17687;DHT22;8962;52.538;13.266;2023-04-26T08:46:21;8.60;99.90
17687;DHT22;8962;52.538;13.266;2023-04-26T08:48:57;8.70;99.90
17687;DHT22;8962;52.538;13.266;2023-04-26T08:51:26;8.90;99.90
17687;DHT22;8962;52.538;13.266;2023-04-26T08:53:54;8.80;99.90
17687;DHT22;8962;52.538;13.266;2023-04-26T08:56:24;9.00;99.90
17687;DHT22;8962;52.538;13.266;2023-04-26T08:58:53;9.20;99.90
17687;DHT22;8962;52.538;13.266;2023-04-26T09:01:23;8.90;99.90
17687;DHT22;8962;52.538;13.266;2023-04-26T09:03:53;8.90;99.90
17687;DHT22;8962;52.538;13.266;2023-04-26T09:06:22;9.10;99.90
17687;DHT22;8962;52.538;13.266;2023-04-26T09:08:53;9.30;99.90
17687;DHT22;8962;52.538;13.266;2023-04-26T09:11:22;9.60;99.90
17687;DHT22;8962;52.538;13.266;2023-04-26T09:13:49;9.70;99.90
17687;DHT22;8962;52.538;13.266;2023-04-26T09:16:17;9.50;99.90
17687;DHT22;8962;52.538;13.266;2023-04-26T09:18:49;9.20;99.90
17687;DHT22;8962;52.538;13.266;2023-04-26T09:21:19;9.20;99.90
17687;DHT22;8962;52.538;13.266;2023-04-26T09:23:56;8.90;99.90
17687;DHT22;8962;52.538;13.266;2023-04-26T09:26:25;9.20;99.90
17687;DHT22;8962;52.538;13.266;2023-04-26T09:29:11;9.80;99.90
17687;DHT22;8962;52.538;13.266;2023-04-26T09:31:42;10.40;99.90
17687;DHT22;8962;52.538;13.266;2023-04-26T09:34:12;10.40;99.90
17687;DHT22;8962;52.538;13.266;2023-04-26T09:36:54;10.00;99.90
17687;DHT22;8962;52.538;13.266;2023-04-26T09:39:30;10.10;99.90
17687;DHT22;8962;52.538;13.266;2023-04-26T09:42:00;10.40;99.90
17687;DHT22;8962;52.538;13.266;2023-04-26T09:44:29;10.70;99.90
17687;DHT22;8962;52.538;13.266;2023-04-26T09:47:02;10.70;99.90
17687;DHT22;8962;52.538;13.266;2023-04-26T09:49:31;10.40;99.90
17687;DHT22;8962;52.538;13.266;2023-04-26T09:52:00;10.40;99.90
17687;DHT22;8962;52.538;13.266;2023-04-26T09:54:45;10.10;99.90
17687;DHT22;8962;52.538;13.266;2023-04-26T09:57:17;10.10;99.90
17687;DHT22;8962;52.538;13.266;2023-04-26T09:59:46;10.20;99.90
17687;DHT22;8962;52.538;13.266;2023-04-26T10:02:17;10.10;99.90
17687;DHT22;8962;52.538;13.266;2023-04-26T10:04:49;10.10;99.90
17687;DHT22;8962;52.538;13.266;2023-04-26T10:07:21;10.30;99.90
17687;DHT22;8962;52.538;13.266;2023-04-26T10:09:50;10.40;99.90
17687;DHT22;8962;52.538;13.266;2023-04-26T10:12:19;10.30;99.90
17687;DHT22;8962;52.538;13.266;2023-04-26T10:14:47;10.20;99.90
17687;DHT22;8962;52.538;13.266;2023-04-26T10:17:15;9.60;99.90
17687;DHT22;8962;52.538;13.266;2023-04-26T10:19:49;9.40;99.90
17687;DHT22;8962;52.538;13.266;2023-04-26T10:22:22;9.10;99.90
17687;DHT22;8962;52.538;13.266;2023-04-26T10:24:52;9.00;99.90
17687;DHT22;8962;52.538;13.266;2023-04-26T10:27:50;8.90;99.90
17687;DHT22;8962;52.538;13.266;2023-04-26T10:30:21;8.90;99.90
17687;DHT22;8962;52.538;13.266;2023-04-26T10:33:10;9.00;99.90
17687;DHT22;8962;52.538;13.266;2023-04-26T10:36:08;9.40;99.90
17687;DHT22;8962;52.538;13.266;2023-04-26T10:38:37;9.80;99.90
17687;DHT22;8962;52.538;13.266;2023-04-26T10:41:27;9.80;99.90
17687;DHT22;8962;52.538;13.266;2023-04-26T10:43:56;10.00;99.90
17687;DHT22;8962;52.538;13.266;2023-04-26T10:46:38;10.30;99.90
17687;DHT22;8962;52.538;13.266;2023-04-26T10:49:16;10.20;99.90
17687;DHT22;8962;52.538;13.266;2023-04-26T10:52:10;10.20;99.90
17687;DHT22;8962;52.538;13.266;2023-04-26T10:55:00;10.10;99.90
17687;DHT22;8962;52.538;13.266;2023-04-26T10:57:47;9.90;99.90
17687;DHT22;8962;52.538;13.266;2023-04-26T11:00:32;9.70;99.90
17687;DHT22;8962;52.538;13.266;2023-04-26T11:03:03;9.80;99.90
17687;DHT22;8962;52.538;13.266;2023-04-26T11:05:35;9.90;99.90
17687;DHT22;8962;52.538;13.266;2023-04-26T11:08:07;10.00;99.90
17687;DHT22;8962;52.538;13.266;2023-04-26T11:10:38;10.20;99.90
17687;DHT22;8962;52.538;13.266;2023-04-26T11:13:05;10.40;99.90
17687;DHT22;8962;52.538;13.266;2023-04-26T11:15:36;10.60;99.90
17687;DHT22;8962;52.538;13.266;2023-04-26T11:18:03;10.80;99.90
17687;DHT22;8962;52.538;13.266;2023-04-26T11:20:32;11.30;99.90
17687;DHT22;8962;52.538;13.266;2023-04-26T11:23:00;11.20;99.90
17687;DHT22;8962;52.538;13.266;2023-04-26T11:25:29;10.90;99.90
17687;DHT22;8962;52.538;13.266;2023-04-26T11:27:59;10.60;99.90
17687;DHT22;8962;52.538;13.266;2023-04-26T11:30:28;10.40;99.90
17687;DHT22;8962;52.538;13.266;2023-04-26T11:32:58;10.60;99.90
17687;DHT22;8962;52.538;13.266;2023-04-26T11:35:25;10.70;99.90
17687;DHT22;8962;52.538;13.266;2023-04-26T11:37:57;10.80;99.90
17687;DHT22;8962;52.538;13.266;2023-04-26T11:40:29;10.70;99.90
17687;DHT22;8962;52.538;13.266;2023-04-26T11:42:58;10.70;99.90
17687;DHT22;8962;52.538;13.266;2023-04-26T11:45:27;10.70;99.90
17687;DHT22;8962;52.538;13.266;2023-04-26T11:47:55;10.60;99.90
17687;DHT22;8962;52.538;13.266;2023-04-26T11:50:24;10.80;99.90
17687;DHT22;8962;52.538;13.266;2023-04-26T11:52:53;11.10;99.90
17687;DHT22;8962;52.538;13.266;2023-04-26T11:55:29;11.30;99.90
17687;DHT22;8962;52.538;13.266;2023-04-26T11:57:57;11.90;99.90
17687;DHT22;8962;52.538;13.266;2023-04-26T12:00:25;13.70;97.80
17687;DHT22;8962;52.538;13.266;2023-04-26T12:02:53;14.10;86.00
17687;DHT22;8962;52.538;13.266;2023-04-26T12:05:35;14.70;87.30
17687;DHT22;8962;52.538;13.266;2023-04-26T12:08:02;13.70;88.10
17687;DHT22;8962;52.538;13.266;2023-04-26T12:10:34;12.60;93.50
17687;DHT22;8962;52.538;13.266;2023-04-26T12:13:01;11.70;97.30
17687;DHT22;8962;52.538;13.266;2023-04-26T12:15:30;11.10;99.90
17687;DHT22;8962;52.538;13.266;2023-04-26T12:17:59;10.70;99.90
17687;DHT22;8962;52.538;13.266;2023-04-26T12:20:32;10.50;99.90
17687;DHT22;8962;52.538;13.266;2023-04-26T12:23:04;10.20;99.90
17687;DHT22;8962;52.538;13.266;2023-04-26T12:25:34;10.10;99.90
17687;DHT22;8962;52.538;13.266;2023-04-26T12:28:04;10.10;99.90
17687;DHT22;8962;52.538;13.266;2023-04-26T12:30:33;9.90;99.90
17687;DHT22;8962;52.538;13.266;2023-04-26T12:33:01;10.10;99.90
17687;DHT22;8962;52.538;13.266;2023-04-26T12:35:33;10.20;99.90
17687;DHT22;8962;52.538;13.266;2023-04-26T12:38:01;10.40;99.90
17687;DHT22;8962;52.538;13.266;2023-04-26T12:40:29;10.70;99.90
17687;DHT22;8962;52.538;13.266;2023-04-26T12:42:58;11.30;99.90
17687;DHT22;8962;52.538;13.266;2023-04-26T12:45:26;12.40;99.90
17687;DHT22;8962;52.538;13.266;2023-04-26T12:47:53;14.00;96.90
17687;DHT22;8962;52.538;13.266;2023-04-26T12:50:21;15.20;91.80
17687;DHT22;8962;52.538;13.266;2023-04-26T12:52:50;16.20;81.60
17687;DHT22;8962;52.538;13.266;2023-04-26T12:55:19;17.80;70.00
17687;DHT22;8962;52.538;13.266;2023-04-26T12:57:46;18.20;59.40
17687;DHT22;8962;52.538;13.266;2023-04-26T13:00:16;16.60;60.20
17687;DHT22;8962;52.538;13.266;2023-04-26T13:02:44;15.40;66.10
17687;DHT22;8962;52.538;13.266;2023-04-26T13:05:12;15.20;67.30
17687;DHT22;8962;52.538;13.266;2023-04-26T13:07:40;14.70;66.10
17687;DHT22;8962;52.538;13.266;2023-04-26T13:10:08;15.00;64.80
17687;DHT22;8962;52.538;13.266;2023-04-26T13:12:36;15.20;65.50
17687;DHT22;8962;52.538;13.266;2023-04-26T13:15:04;14.80;67.10
17687;DHT22;8962;52.538;13.266;2023-04-26T13:17:34;13.50;68.40
17687;DHT22;8962;52.538;13.266;2023-04-26T13:20:02;12.70;73.60
17687;DHT22;8962;52.538;13.266;2023-04-26T13:22:30;12.00;78.40
17687;DHT22;8962;52.538;13.266;2023-04-26T13:24:58;11.60;83.20
17687;DHT22;8962;52.538;13.266;2023-04-26T13:27:25;11.30;86.10
17687;DHT22;8962;52.538;13.266;2023-04-26T13:29:53;11.10;90.20
17687;DHT22;8962;52.538;13.266;2023-04-26T13:32:20;11.00;90.60
17687;DHT22;8962;52.538;13.266;2023-04-26T13:34:49;10.80;91.50
17687;DHT22;8962;52.538;13.266;2023-04-26T13:37:18;10.70;92.50
17687;DHT22;8962;52.538;13.266;2023-04-26T13:39:46;10.70;94.70
17687;DHT22;8962;52.538;13.266;2023-04-26T13:42:13;10.60;99.90
17687;DHT22;8962;52.538;13.266;2023-04-26T13:44:41;10.80;99.90
17687;DHT22;8962;52.538;13.266;2023-04-26T13:47:08;11.20;99.90
17687;DHT22;8962;52.538;13.266;2023-04-26T13:49:42;12.50;98.50
17687;DHT22;8962;52.538;13.266;2023-04-26T13:52:11;13.40;91.40
17687;DHT22;8962;52.538;13.266;2023-04-26T13:54:39;13.10;90.30
17687;DHT22;8962;52.538;13.266;2023-04-26T13:57:06;12.60;91.20
17687;DHT22;8962;52.538;13.266;2023-04-26T13:59:33;12.30;90.80
17687;DHT22;8962;52.538;13.266;2023-04-26T14:02:01;11.70;92.50
17687;DHT22;8962;52.538;13.266;2023-04-26T14:04:28;11.10;97.70
17687;DHT22;8962;52.538;13.266;2023-04-26T14:06:55;10.90;99.30
17687;DHT22;8962;52.538;13.266;2023-04-26T14:09:24;11.00;99.90
17687;DHT22;8962;52.538;13.266;2023-04-26T14:11:51;12.00;99.90
17687;DHT22;8962;52.538;13.266;2023-04-26T14:14:18;13.30;96.90
17687;DHT22;8962;52.538;13.266;2023-04-26T14:16:46;14.90;91.10
17687;DHT22;8962;52.538;13.266;2023-04-26T14:19:13;15.70;81.70
17687;DHT22;8962;52.538;13.266;2023-04-26T14:21:41;16.10;75.00
17687;DHT22;8962;52.538;13.266;2023-04-26T14:24:09;16.50;69.40
17687;DHT22;8962;52.538;13.266;2023-04-26T14:26:38;17.00;63.90
17687;DHT22;8962;52.538;13.266;2023-04-26T14:29:06;15.90;63.90
17687;DHT22;8962;52.538;13.266;2023-04-26T14:31:33;15.60;67.80
17687;DHT22;8962;52.538;13.266;2023-04-26T14:34:01;15.10;69.10
17687;DHT22;8962;52.538;13.266;2023-04-26T14:36:30;14.20;74.40
17687;DHT22;8962;52.538;13.266;2023-04-26T14:38:58;13.40;80.10
17687;DHT22;8962;52.538;13.266;2023-04-26T14:41:25;12.80;84.30
17687;DHT22;8962;52.538;13.266;2023-04-26T14:43:55;12.40;88.60
17687;DHT22;8962;52.538;13.266;2023-04-26T14:46:22;12.30;91.40
17687;DHT22;8962;52.538;13.266;2023-04-26T14:48:51;12.20;91.10
17687;DHT22;8962;52.538;13.266;2023-04-26T14:51:19;12.10;91.80
17687;DHT22;8962;52.538;13.266;2023-04-26T14:53:47;12.10;91.30
17687;DHT22;8962;52.538;13.266;2023-04-26T14:56:15;13.60;87.80
17687;DHT22;8962;52.538;13.266;2023-04-26T14:58:42;14.20;82.70
17687;DHT22;8962;52.538;13.266;2023-04-26T15:01:12;15.00;78.70
17687;DHT22;8962;52.538;13.266;2023-04-26T15:03:39;15.30;74.00
17687;DHT22;8962;52.538;13.266;2023-04-26T15:06:07;16.40;69.20
17687;DHT22;8962;52.538;13.266;2023-04-26T15:08:35;17.70;60.50
17687;DHT22;8962;52.538;13.266;2023-04-26T15:11:02;18.90;52.20
17687;DHT22;8962;52.538;13.266;2023-04-26T15:13:30;18.90;49.30
17687;DHT22;8962;52.538;13.266;2023-04-26T15:16:02;18.10;49.70
17687;DHT22;8962;52.538;13.266;2023-04-26T15:18:30;16.40;52.00
17687;DHT22;8962;52.538;13.266;2023-04-26T15:20:58;15.30;56.40
17687;DHT22;8962;52.538;13.266;2023-04-26T15:23:29;16.10;56.20
17687;DHT22;8962;52.538;13.266;2023-04-26T15:26:00;15.20;57.20
17687;DHT22;8962;52.538;13.266;2023-04-26T15:28:28;14.60;60.30
17687;DHT22;8962;52.538;13.266;2023-04-26T15:31:07;14.00;63.90
17687;DHT22;8962;52.538;13.266;2023-04-26T15:33:36;13.30;65.90
17687;DHT22;8962;52.538;13.266;2023-04-26T15:36:06;12.70;70.50
17687;DHT22;8962;52.538;13.266;2023-04-26T15:38:33;12.30;74.40
17687;DHT22;8962;52.538;13.266;2023-04-26T15:41:01;12.20;77.20
17687;DHT22;8962;52.538;13.266;2023-04-26T15:43:29;11.90;75.70
17687;DHT22;8962;52.538;13.266;2023-04-26T15:45:56;11.50;77.50
17687;DHT22;8962;52.538;13.266;2023-04-26T15:48:23;11.10;81.50
17687;DHT22;8962;52.538;13.266;2023-04-26T15:50:53;10.90;84.10
17687;DHT22;8962;52.538;13.266;2023-04-26T15:53:21;10.70;86.60